createdAt,value
2023-04-07T00:00:43.480Z,29.67
2023-04-07T00:03:11.697Z,31.30
2023-04-07T00:05:39.892Z,27.13
2023-04-07T00:08:07.967Z,24.10
2023-04-07T00:10:36.264Z,23.67
2023-04-07T00:13:05.796Z,26.37
2023-04-07T00:15:33.924Z,21.43
2023-04-07T00:18:02.072Z,20.33
2023-04-07T00:20:30.204Z,25.03
2023-04-07T00:22:58.264Z,23.50
2023-04-07T00:25:26.369Z,25.43
2023-04-07T00:27:54.432Z,32.93
2023-04-07T00:30:23.963Z,23.80
2023-04-07T00:32:52.467Z,21.83
2023-04-07T00:35:20.981Z,22.43
2023-04-07T00:37:49.032Z,21.40
2023-04-07T00:40:18.301Z,21.50
2023-04-07T00:42:46.424Z,23.93
2023-04-07T00:45:14.503Z,19.90
2023-04-07T00:47:44.074Z,21.53
2023-04-07T00:50:12.627Z,17.27
2023-04-07T00:52:41.471Z,17.50
2023-04-07T00:55:10.418Z,16.90
2023-04-07T00:57:38.747Z,19.10
2023-04-07T01:00:08.640Z,18.13
2023-04-07T01:02:43.160Z,17.27
2023-04-07T01:05:17.862Z,16.77
2023-04-07T01:07:53.841Z,16.10
2023-04-07T01:10:28.991Z,13.03
2023-04-07T01:13:04.041Z,14.60
2023-04-07T01:15:34.608Z,13.93
2023-04-07T01:18:09.809Z,14.37
2023-04-07T01:20:40.734Z,14.30
2023-04-07T01:23:09.851Z,14.17
2023-04-07T01:26:12.242Z,12.40
2023-04-07T01:29:24.969Z,10.67
2023-04-07T01:31:56.829Z,12.40
2023-04-07T01:34:27.990Z,11.43
2023-04-07T01:36:57.558Z,14.00
2023-04-07T01:39:26.607Z,17.07
2023-04-07T01:41:55.483Z,13.50
2023-04-07T01:44:24.651Z,10.47
2023-04-07T01:46:55.131Z,11.77
2023-04-07T01:49:24.641Z,13.87
2023-04-07T01:51:53.088Z,13.97
2023-04-07T01:54:22.835Z,18.63
2023-04-07T01:56:50.990Z,12.83
2023-04-07T01:59:19.123Z,17.30
2023-04-07T02:01:47.402Z,12.70
2023-04-07T02:04:23.160Z,16.87
2023-04-07T02:06:55.686Z,14.70
2023-04-07T02:09:27.800Z,12.57
2023-04-07T02:11:59.505Z,10.50
2023-04-07T02:14:28.532Z,13.73
2023-04-07T02:16:58.244Z,10.30
2023-04-07T02:19:28.138Z,10.10
2023-04-07T02:21:57.180Z,16.17
2023-04-07T02:24:25.279Z,12.73
2023-04-07T02:26:53.364Z,14.83
2023-04-07T02:29:21.775Z,13.70
2023-04-07T02:31:49.953Z,12.20
2023-04-07T02:34:18.062Z,13.50
2023-04-07T02:36:47.517Z,15.50
2023-04-07T02:39:16.002Z,19.30
2023-04-07T02:41:44.087Z,14.70
2023-04-07T02:44:12.169Z,14.00
2023-04-07T02:46:41.427Z,12.93
2023-04-07T02:49:09.494Z,14.37
2023-04-07T02:51:37.681Z,15.30
2023-04-07T02:54:07.253Z,14.33
2023-04-07T02:56:35.334Z,10.43
2023-04-07T02:59:03.457Z,13.07
2023-04-07T03:06:52.265Z,14.03
2023-04-07T03:09:21.811Z,10.53
2023-04-07T03:11:49.876Z,11.40
2023-04-07T03:14:17.985Z,11.87
2023-04-07T03:16:46.134Z,9.60
2023-04-07T03:19:14.265Z,12.33
2023-04-07T03:21:42.437Z,14.37
2023-04-07T03:24:10.726Z,18.67
2023-04-07T03:26:40.139Z,13.17
2023-04-07T03:29:08.278Z,12.57
2023-04-07T03:31:37.646Z,17.70
2023-04-07T03:34:06.147Z,15.87
2023-04-07T03:36:34.194Z,13.87
2023-04-07T03:39:02.302Z,15.70
2023-04-07T03:41:30.753Z,15.40
2023-04-07T03:44:00.521Z,16.23
2023-04-07T03:46:28.616Z,19.17
2023-04-07T03:48:56.745Z,20.63
2023-04-07T03:51:24.920Z,21.70
2023-04-07T03:53:53.203Z,21.37
2023-04-07T03:56:22.518Z,17.43
2023-04-07T03:58:50.966Z,20.73
2023-04-07T04:01:20.670Z,20.17
2023-04-07T04:03:48.860Z,22.63
2023-04-07T04:06:17.057Z,21.43
2023-04-07T04:08:45.191Z,21.13
2023-04-07T04:11:13.428Z,21.93
2023-04-07T04:13:41.659Z,24.77
2023-04-07T04:16:09.999Z,22.17
2023-04-07T04:18:39.475Z,24.40
2023-04-07T04:21:09.218Z,20.13
2023-04-07T04:23:37.256Z,22.73
2023-04-07T04:26:05.412Z,22.50
2023-04-07T04:28:33.486Z,26.03
2023-04-07T04:31:01.571Z,19.10
2023-04-07T04:33:30.203Z,19.83
2023-04-07T04:35:59.628Z,20.77
2023-04-07T04:38:27.702Z,25.80
2023-04-07T04:40:55.732Z,22.93
2023-04-07T04:43:23.826Z,19.77
2023-04-07T04:45:52.158Z,18.97
2023-04-07T04:48:20.540Z,20.70
2023-04-07T04:50:48.587Z,21.00
2023-04-07T04:53:18.033Z,20.07
2023-04-07T04:55:48.195Z,17.73
2023-04-07T04:58:16.528Z,15.73
2023-04-07T05:00:44.601Z,17.13
2023-04-07T05:03:13.089Z,17.10
2023-04-07T05:05:41.362Z,18.00
2023-04-07T05:08:12.151Z,24.00
2023-04-07T05:10:41.896Z,18.77
2023-04-07T05:13:10.048Z,15.97
2023-04-07T05:15:38.100Z,15.53
2023-04-07T05:18:06.290Z,19.13
2023-04-07T05:20:34.357Z,19.17
2023-04-07T05:23:02.403Z,23.63
2023-04-07T05:25:30.500Z,18.23
2023-04-07T05:28:00.728Z,19.70
2023-04-07T05:30:28.780Z,19.13
2023-04-07T05:32:56.875Z,23.53
2023-04-07T05:35:25.021Z,18.37
2023-04-07T05:37:53.141Z,21.80
2023-04-07T05:40:21.268Z,18.23
2023-04-07T05:50:22.507Z,15.43
2023-04-07T05:52:50.633Z,14.50
2023-04-07T05:55:18.988Z,17.70
2023-04-07T05:57:47.546Z,22.13
2023-04-07T06:00:16.758Z,15.57
2023-04-07T06:02:45.034Z,13.27
2023-04-07T06:05:13.284Z,19.90
2023-04-07T06:07:42.796Z,17.77
2023-04-07T06:10:10.877Z,16.90
2023-04-07T06:12:39.020Z,14.30
2023-04-07T06:15:07.875Z,14.57
2023-04-07T06:17:40.239Z,17.33
2023-04-07T06:20:09.562Z,14.40
2023-04-07T06:22:37.647Z,12.13
2023-04-07T06:25:08.279Z,18.03
2023-04-07T06:27:37.214Z,16.57
2023-04-07T06:30:06.031Z,17.03
2023-04-07T06:32:34.668Z,18.97
2023-04-07T06:35:03.441Z,19.43
2023-04-07T06:37:31.628Z,17.63
2023-04-07T06:39:59.654Z,13.07
2023-04-07T06:42:29.031Z,16.60
2023-04-07T06:44:57.213Z,14.83
2023-04-07T06:47:25.388Z,14.43
2023-04-07T06:49:53.509Z,18.80
2023-04-07T06:52:21.755Z,15.83
2023-04-07T06:54:49.890Z,19.90
2023-04-07T06:57:18.038Z,13.97
2023-04-07T06:59:47.688Z,14.23
2023-04-07T07:02:16.081Z,13.70
2023-04-07T07:04:44.323Z,13.13
2023-04-07T07:07:12.451Z,17.23
2023-04-07T07:09:40.566Z,14.67
2023-04-07T07:12:08.864Z,14.67
2023-04-07T07:14:37.001Z,18.40
2023-04-07T07:17:06.839Z,16.77
2023-04-07T07:19:34.976Z,17.00
2023-04-07T07:22:04.340Z,16.57
2023-04-07T07:24:34.124Z,17.47
2023-04-07T07:27:03.544Z,15.63
2023-04-07T07:29:31.656Z,14.90
2023-04-07T07:31:59.693Z,17.43
2023-04-07T07:34:29.105Z,16.23
2023-04-07T07:36:57.195Z,14.73
2023-04-07T07:39:25.433Z,15.57
2023-04-07T07:41:53.611Z,16.73
2023-04-07T07:44:22.787Z,13.60
2023-04-07T07:46:51.540Z,13.67
2023-04-07T07:49:19.684Z,15.43
2023-04-07T07:51:49.150Z,11.60
2023-04-07T07:54:17.251Z,17.70
2023-04-07T07:56:45.349Z,17.60
2023-04-07T07:59:13.418Z,17.07
2023-04-07T08:01:41.517Z,14.23
2023-04-07T08:04:10.008Z,16.83
2023-04-07T08:06:38.584Z,18.60
2023-04-07T08:09:08.054Z,13.43
2023-04-07T08:11:36.162Z,16.80
2023-04-07T08:14:04.243Z,15.30
2023-04-07T08:16:32.479Z,15.03
2023-04-07T08:19:00.607Z,15.90
2023-04-07T08:21:29.106Z,12.90
2023-04-07T08:23:57.306Z,18.03
2023-04-07T08:26:26.757Z,12.87
2023-04-07T08:28:56.073Z,14.57
2023-04-07T08:31:24.163Z,16.70
2023-04-07T08:33:54.161Z,19.60
2023-04-07T08:36:22.488Z,15.23
2023-04-07T08:38:50.775Z,15.90
2023-04-07T08:41:26.621Z,17.57
2023-04-07T08:43:58.255Z,16.63
2023-04-07T08:46:27.336Z,11.90
2023-04-07T08:48:57.384Z,14.77
2023-04-07T08:51:29.702Z,12.37
2023-04-07T08:54:06.255Z,12.30
2023-04-07T08:56:35.167Z,18.57
2023-04-07T08:59:07.046Z,16.43
2023-04-07T09:09:07.373Z,13.10
2023-04-07T09:11:41.111Z,9.97
2023-04-07T09:14:10.905Z,9.00
2023-04-07T09:16:39.540Z,9.27
2023-04-07T09:19:07.857Z,8.23
2023-04-07T09:21:52.431Z,12.33
2023-04-07T09:24:24.423Z,8.63
2023-04-07T09:26:52.952Z,8.27
2023-04-07T09:29:22.644Z,7.80
2023-04-07T09:31:55.112Z,7.83
2023-04-07T09:34:28.240Z,6.63
2023-04-07T09:36:56.733Z,8.90
2023-04-07T09:39:25.230Z,6.90
2023-04-07T09:41:53.819Z,7.43
2023-04-07T09:44:23.852Z,8.33
2023-04-07T09:46:53.515Z,13.07
2023-04-07T09:49:21.848Z,8.37
2023-04-07T09:51:57.722Z,6.20
2023-04-07T09:54:37.615Z,9.23
2023-04-07T09:57:07.467Z,13.53
2023-04-07T09:59:38.327Z,9.60
2023-04-07T10:02:07.386Z,9.03
2023-04-07T10:04:37.524Z,9.43
2023-04-07T10:07:07.456Z,9.17
2023-04-07T10:09:35.585Z,12.40
2023-04-07T10:12:04.305Z,7.03
2023-04-07T10:14:33.576Z,10.83
2023-04-07T10:17:04.754Z,9.10
2023-04-07T10:19:34.467Z,9.37
2023-04-07T10:22:05.819Z,11.30
2023-04-07T10:24:47.138Z,5.97
2023-04-07T10:27:20.420Z,5.87
2023-04-07T10:29:51.472Z,9.10
2023-04-07T10:32:21.242Z,9.73
2023-04-07T10:35:02.192Z,12.40
2023-04-07T10:37:30.350Z,13.77
2023-04-07T10:40:29.635Z,13.87
2023-04-07T10:42:58.142Z,12.40
2023-04-07T10:45:53.625Z,11.40
2023-04-07T10:48:23.640Z,12.33
2023-04-07T10:51:16.657Z,9.43
2023-04-07T10:54:27.852Z,14.43
2023-04-07T10:57:10.326Z,14.63
2023-04-07T10:59:39.683Z,12.33
2023-04-07T11:02:33.889Z,15.43
2023-04-07T11:05:03.847Z,13.63
2023-04-07T11:07:55.048Z,18.03
2023-04-07T11:10:23.440Z,13.70
2023-04-07T11:13:15.745Z,15.07
2023-04-07T11:15:43.826Z,11.37
2023-04-07T11:18:19.706Z,11.70
2023-04-07T11:20:51.772Z,13.50
2023-04-07T11:23:21.016Z,12.43
2023-04-07T11:25:50.831Z,10.70
2023-04-07T11:28:19.323Z,8.63
2023-04-07T11:30:51.615Z,9.90
2023-04-07T11:33:21.484Z,10.00
2023-04-07T11:35:56.876Z,9.00
2023-04-07T11:38:27.381Z,10.57
2023-04-07T11:40:56.036Z,10.77
2023-04-07T11:43:27.258Z,10.60
2023-04-07T11:46:19.836Z,8.93
2023-04-07T11:48:48.524Z,9.80
2023-04-07T11:51:19.532Z,10.37
2023-04-07T11:53:48.418Z,7.13
2023-04-07T11:56:18.731Z,6.77
2023-04-07T11:58:50.879Z,9.67
2023-04-07T12:01:19.223Z,8.13
2023-04-07T12:03:58.923Z,7.00
2023-04-07T12:06:35.173Z,6.33
2023-04-07T12:09:03.871Z,5.87
2023-04-07T12:11:32.778Z,12.40
2023-04-07T12:14:01.392Z,7.50
2023-04-07T12:16:29.509Z,6.53
2023-04-07T12:18:57.875Z,10.17
2023-04-07T12:21:26.769Z,8.60
2023-04-07T12:23:56.193Z,10.30
2023-04-07T12:26:25.510Z,11.07
2023-04-07T12:28:53.783Z,10.97
2023-04-07T12:31:21.883Z,10.03
2023-04-07T12:33:50.263Z,8.43
2023-04-07T12:36:18.544Z,6.63
2023-04-07T12:38:50.129Z,10.00
2023-04-07T12:41:19.665Z,10.60
2023-04-07T12:43:48.036Z,8.00
2023-04-07T12:46:16.810Z,9.30
2023-04-07T12:48:45.877Z,10.10
2023-04-07T12:51:13.948Z,8.47
2023-04-07T12:53:42.096Z,11.40
2023-04-07T12:56:10.190Z,8.23
2023-04-07T12:58:39.806Z,7.53
2023-04-07T13:01:08.092Z,12.10
2023-04-07T13:03:37.307Z,13.03
2023-04-07T13:06:06.377Z,11.43
2023-04-07T13:08:34.557Z,11.27
2023-04-07T13:11:02.660Z,10.07
2023-04-07T13:13:31.681Z,13.60
2023-04-07T13:16:01.277Z,8.27
2023-04-07T13:18:29.462Z,13.60
2023-04-07T13:23:28.720Z,10.63
2023-04-07T13:25:56.865Z,10.40
2023-04-07T13:28:25.001Z,12.63
2023-04-07T13:30:53.117Z,10.17
2023-04-07T13:33:22.650Z,12.87
2023-04-07T13:35:50.879Z,10.20
2023-04-07T13:38:18.972Z,8.50
2023-04-07T13:40:49.610Z,12.37
2023-04-07T13:43:19.025Z,10.17
2023-04-07T13:45:47.520Z,10.80
2023-04-07T13:48:15.880Z,6.80
2023-04-07T13:50:45.333Z,9.97
2023-04-07T13:53:13.348Z,11.73
2023-04-07T13:55:41.740Z,7.83
2023-04-07T13:58:09.806Z,9.87
2023-04-07T14:00:38.503Z,9.60
2023-04-07T14:03:06.861Z,6.73
2023-04-07T14:05:35.815Z,6.73
2023-04-07T14:08:05.485Z,9.47
2023-04-07T14:10:34.017Z,8.60
2023-04-07T14:13:02.177Z,9.00
2023-04-07T14:15:30.276Z,6.17
2023-04-07T14:17:58.705Z,6.87
2023-04-07T14:20:27.390Z,11.57
2023-04-07T14:22:56.213Z,8.33
2023-04-07T14:25:27.007Z,6.53
2023-04-07T14:27:55.238Z,12.43
2023-04-07T14:30:23.480Z,9.60
2023-04-07T14:32:51.557Z,9.03
2023-04-07T14:35:19.670Z,8.47
2023-04-07T14:37:47.705Z,6.03
2023-04-07T14:40:15.778Z,11.73
2023-04-07T14:42:45.225Z,9.93
2023-04-07T14:45:13.901Z,6.57
2023-04-07T14:47:42.012Z,7.47
2023-04-07T14:50:10.691Z,7.23
2023-04-07T14:52:38.772Z,7.63
2023-04-07T14:55:07.913Z,7.10
2023-04-07T14:57:36.161Z,7.23
2023-04-07T15:00:07.512Z,5.23
2023-04-07T15:02:36.477Z,6.67
2023-04-07T15:05:05.174Z,10.93
2023-04-07T15:07:33.271Z,9.03
2023-04-07T15:10:01.504Z,7.67
2023-04-07T15:12:31.521Z,11.27
2023-04-07T15:14:59.561Z,7.93
2023-04-07T15:17:42.622Z,7.37
2023-04-07T15:20:13.264Z,8.30
2023-04-07T15:22:41.644Z,11.07
2023-04-07T15:25:09.903Z,12.07
2023-04-07T15:27:38.010Z,6.70
2023-04-07T15:30:06.782Z,10.33
2023-04-07T15:32:36.270Z,5.70
2023-04-07T15:35:04.478Z,7.30
2023-04-07T15:37:32.567Z,6.10
2023-04-07T15:40:00.593Z,8.63
2023-04-07T15:42:28.651Z,8.20
2023-04-07T15:44:56.697Z,7.37
2023-04-07T15:47:24.787Z,10.97
2023-04-07T15:49:54.211Z,10.23
2023-04-07T15:52:22.267Z,11.03
2023-04-07T15:54:50.391Z,11.83
2023-04-07T15:57:18.445Z,8.60
2023-04-07T15:59:46.524Z,10.23
2023-04-07T16:02:14.950Z,10.43
2023-04-07T16:04:44.648Z,11.00
2023-04-07T16:07:14.076Z,12.87
2023-04-07T16:09:42.176Z,12.57
2023-04-07T16:16:12.133Z,12.60
2023-04-07T16:18:40.330Z,9.87
2023-04-07T16:21:09.258Z,14.40
2023-04-07T16:23:38.705Z,14.63
2023-04-07T16:26:06.921Z,13.50
2023-04-07T16:28:34.988Z,12.77
2023-04-07T16:31:06.002Z,13.10
2023-04-07T16:33:34.020Z,14.60
2023-04-07T16:36:02.189Z,10.17
2023-04-07T16:38:30.299Z,10.23
2023-04-07T16:41:04.295Z,10.60
2023-04-07T16:43:32.745Z,16.77
2023-04-07T16:46:01.111Z,12.63
2023-04-07T16:48:30.234Z,13.17
2023-04-07T16:50:58.393Z,12.17
2023-04-07T16:53:26.530Z,13.93
2023-04-07T16:55:54.625Z,16.47
2023-04-07T16:58:27.169Z,12.03
2023-04-07T17:00:55.200Z,15.63
2023-04-07T17:03:23.555Z,14.57
2023-04-07T17:05:51.828Z,13.00
2023-04-07T17:08:20.119Z,18.53
2023-04-07T17:10:48.272Z,16.23
2023-04-07T17:13:20.766Z,15.37
2023-04-07T17:15:53.841Z,13.33
2023-04-07T17:18:21.950Z,13.13
2023-04-07T17:20:50.098Z,14.53
2023-04-07T17:23:18.566Z,12.73
2023-04-07T17:25:46.590Z,12.43
2023-04-07T17:28:14.662Z,16.83
2023-04-07T17:30:44.927Z,15.03
2023-04-07T17:40:59.791Z,14.20
2023-04-07T17:43:28.627Z,12.57
2023-04-07T17:45:56.881Z,14.30
2023-04-07T17:48:25.201Z,13.57
2023-04-07T17:50:53.263Z,18.73
2023-04-07T17:53:21.327Z,14.30
2023-04-07T17:55:50.002Z,13.97
2023-04-07T17:58:21.034Z,18.60
2023-04-07T18:00:50.533Z,13.30
2023-04-07T18:03:19.549Z,14.83
2023-04-07T18:05:49.190Z,15.50
2023-04-07T18:08:18.144Z,13.57
2023-04-07T18:10:46.280Z,14.57
2023-04-07T18:13:14.404Z,11.13
2023-04-07T18:15:43.920Z,14.50
2023-04-07T18:18:12.096Z,17.43
2023-04-07T18:20:40.207Z,12.17
2023-04-07T18:23:08.446Z,13.33
2023-04-07T18:25:39.183Z,13.33
2023-04-07T18:28:07.277Z,15.90
2023-04-07T18:30:35.460Z,11.70
2023-04-07T18:33:05.063Z,13.83
2023-04-07T18:35:33.295Z,13.77
2023-04-07T18:38:01.499Z,13.93
2023-04-07T18:40:32.701Z,15.83
2023-04-07T18:43:01.165Z,14.30
2023-04-07T18:45:29.266Z,14.97
2023-04-07T18:47:57.445Z,14.47
2023-04-07T18:50:28.704Z,13.67
2023-04-07T18:52:58.739Z,16.67
2023-04-07T18:55:27.144Z,21.40
2023-04-07T18:57:55.665Z,20.87
2023-04-07T19:00:23.823Z,15.73
2023-04-07T19:02:51.974Z,20.77
2023-04-07T19:05:22.985Z,18.43
2023-04-07T19:07:54.630Z,17.63
2023-04-07T19:10:22.927Z,17.27
2023-04-07T19:12:52.739Z,15.23
2023-04-07T19:15:22.983Z,15.07
2023-04-07T19:17:53.302Z,17.67
2023-04-07T19:20:21.544Z,16.33
2023-04-07T19:22:52.500Z,21.57
2023-04-07T19:25:29.861Z,17.50
2023-04-07T19:27:58.608Z,20.57
2023-04-07T19:30:26.776Z,18.90
2023-04-07T19:32:56.895Z,22.00
2023-04-07T19:35:25.034Z,22.97
2023-04-07T19:37:53.775Z,24.83
2023-04-07T19:40:23.463Z,23.50
2023-04-07T19:42:51.617Z,23.53
2023-04-07T19:45:22.961Z,28.67
2023-04-07T19:47:51.144Z,22.50
2023-04-07T19:50:19.928Z,32.23
2023-04-07T19:52:53.308Z,22.97
2023-04-07T19:55:24.719Z,24.13
2023-04-07T19:57:52.767Z,26.73
2023-04-07T20:00:21.094Z,26.57
2023-04-07T20:02:54.523Z,35.07
2023-04-07T20:05:22.914Z,31.60
2023-04-07T20:07:51.500Z,35.13
2023-04-07T20:10:23.702Z,35.53
2023-04-07T20:12:53.403Z,33.03
2023-04-07T20:15:23.626Z,37.87
2023-04-07T20:17:51.800Z,36.27
2023-04-07T20:20:20.113Z,39.33
2023-04-07T20:22:48.204Z,36.87
2023-04-07T20:25:16.317Z,41.53
2023-04-07T20:27:49.340Z,38.53
2023-04-07T20:30:18.003Z,39.80
2023-04-07T20:32:51.401Z,40.13
2023-04-07T20:35:24.151Z,43.13
2023-04-07T20:37:52.326Z,42.07
2023-04-07T20:40:20.518Z,37.40
2023-04-07T20:42:49.985Z,41.80
2023-04-07T20:45:19.367Z,42.77
2023-04-07T20:47:50.213Z,43.93
2023-04-07T20:50:18.492Z,41.03
2023-04-07T20:52:46.680Z,42.20
2023-04-07T20:55:17.578Z,42.60
2023-04-07T20:57:48.403Z,41.13
2023-04-07T21:00:22.935Z,42.37
2023-04-07T21:02:57.027Z,40.33
2023-04-07T21:05:28.410Z,47.23
2023-04-07T21:07:56.465Z,36.17
2023-04-07T21:10:27.619Z,41.77
2023-04-07T21:12:58.140Z,45.17
2023-04-07T21:15:27.617Z,37.00
2023-04-07T21:17:58.761Z,34.37
2023-04-07T21:20:31.076Z,38.53
2023-04-07T21:23:04.748Z,31.50
2023-04-07T21:25:34.452Z,38.23
2023-04-07T21:28:02.593Z,40.47
2023-04-07T21:30:32.649Z,41.53
2023-04-07T21:33:03.990Z,41.33
2023-04-07T21:35:32.159Z,38.73
2023-04-07T21:38:00.237Z,40.07
2023-04-07T21:40:31.437Z,35.43
2023-04-07T21:42:59.581Z,39.53
2023-04-07T21:45:28.040Z,40.37
2023-04-07T21:47:57.703Z,38.13
2023-04-07T21:50:28.046Z,39.90
2023-04-07T21:53:01.091Z,43.53
2023-04-07T21:55:35.770Z,40.47
2023-04-07T21:58:04.001Z,39.77
2023-04-07T22:00:32.147Z,37.03
2023-04-07T22:03:01.849Z,43.73
2023-04-07T22:05:30.212Z,35.53
2023-04-07T22:07:58.599Z,39.17
2023-04-07T22:10:27.125Z,47.57
2023-04-07T22:12:55.330Z,39.67
2023-04-07T22:15:23.563Z,41.03
2023-04-07T22:17:51.939Z,47.20
2023-04-07T22:20:21.450Z,40.67
2023-04-07T22:22:49.570Z,45.87
2023-04-07T22:25:17.786Z,41.57
2023-04-07T22:27:48.298Z,41.27
2023-04-07T22:30:18.877Z,45.30
2023-04-07T22:32:48.066Z,36.90
2023-04-07T22:42:49.543Z,35.60
2023-04-07T22:45:20.339Z,38.20
2023-04-07T22:47:48.538Z,34.13
2023-04-07T22:50:16.792Z,38.07
2023-04-07T22:52:44.853Z,32.47
2023-04-07T22:55:12.914Z,35.70
2023-04-07T22:57:41.163Z,36.33
2023-04-07T23:00:11.630Z,36.47
2023-04-07T23:02:39.877Z,32.23
2023-04-07T23:05:10.383Z,31.93
2023-04-07T23:07:38.627Z,31.93
2023-04-07T23:10:08.072Z,33.10
2023-04-07T23:12:37.891Z,32.20
2023-04-07T23:15:06.756Z,30.73
2023-04-07T23:17:36.840Z,30.70
2023-04-07T23:20:05.398Z,29.40
2023-04-07T23:22:33.449Z,31.43
2023-04-07T23:28:52.501Z,34.53
2023-04-07T23:31:20.645Z,35.23
2023-04-07T23:33:50.419Z,36.07
2023-04-07T23:36:18.556Z,37.90
2023-04-07T23:38:47.023Z,38.30
2023-04-07T23:41:15.519Z,38.67
2023-04-07T23:43:43.550Z,36.40
2023-04-07T23:46:11.715Z,38.33
2023-04-07T23:48:39.797Z,35.00
2023-04-07T23:51:09.403Z,33.07
2023-04-07T23:53:37.437Z,35.57
2023-04-07T23:56:05.911Z,32.03
2023-04-07T23:58:33.938Z,32.37
